Terminal Aerodrome Forecast
Issued by NWS

Home | Current Version | Previous Version | Text Only | Print | Product List | Glossary On
Versions: 1 2 3 4 5 6 7 8 9 10 11 12 13 14 15 16 17
000
FTUS42 KTAE 282335
TAFABY
TAF
KABY 282335Z 2900/2924 18007KT P6SM BKN250
     FM290900 13004KT 6SM BR SCT005 BKN050
     FM291400 16008KT P6SM BKN025
     FM291600 17010G15KT P6SM BKN050=

USA.gov is the U.S. government's official web portal to all federal, state and local government web resources and services.